sensor_id;sensor_type;location;lat;lon;timestamp;P1;durP1;ratioP1;P2;durP2;ratioP2
32533;SDS011;18973;48.580;8.912;2022-07-23T00:01:33;2.55;;;1.70;;
32533;SDS011;18973;48.580;8.912;2022-07-23T00:03:59;1.52;;;1.00;;
32533;SDS011;18973;48.580;8.912;2022-07-23T00:06:25;0.82;;;0.68;;
32533;SDS011;18973;48.580;8.912;2022-07-23T00:08:52;1.00;;;0.73;;
32533;SDS011;18973;48.580;8.912;2022-07-23T00:11:18;2.35;;;1.63;;
32533;SDS011;18973;48.580;8.912;2022-07-23T00:13:44;1.35;;;1.10;;
32533;SDS011;18973;48.580;8.912;2022-07-23T00:16:09;1.35;;;0.88;;
32533;SDS011;18973;48.580;8.912;2022-07-23T00:18:35;1.55;;;1.15;;
32533;SDS011;18973;48.580;8.912;2022-07-23T00:21:01;1.88;;;0.93;;
32533;SDS011;18973;48.580;8.912;2022-07-23T00:23:27;1.25;;;1.00;;
32533;SDS011;18973;48.580;8.912;2022-07-23T00:25:53;1.63;;;0.95;;
32533;SDS011;18973;48.580;8.912;2022-07-23T00:28:19;1.67;;;0.93;;
32533;SDS011;18973;48.580;8.912;2022-07-23T00:30:45;0.52;;;0.50;;
32533;SDS011;18973;48.580;8.912;2022-07-23T00:33:11;1.65;;;0.85;;
32533;SDS011;18973;48.580;8.912;2022-07-23T00:35:38;1.27;;;1.17;;
32533;SDS011;18973;48.580;8.912;2022-07-23T00:38:06;1.50;;;0.70;;
32533;SDS011;18973;48.580;8.912;2022-07-23T00:40:33;1.27;;;0.80;;
32533;SDS011;18973;48.580;8.912;2022-07-23T00:42:59;2.25;;;0.85;;
32533;SDS011;18973;48.580;8.912;2022-07-23T00:45:25;0.93;;;0.77;;
32533;SDS011;18973;48.580;8.912;2022-07-23T00:47:51;1.38;;;0.73;;
32533;SDS011;18973;48.580;8.912;2022-07-23T00:50:17;1.73;;;1.10;;
32533;SDS011;18973;48.580;8.912;2022-07-23T00:52:43;3.83;;;1.08;;
32533;SDS011;18973;48.580;8.912;2022-07-23T00:55:10;1.75;;;0.98;;
32533;SDS011;18973;48.580;8.912;2022-07-23T00:57:37;1.25;;;1.08;;
32533;SDS011;18973;48.580;8.912;2022-07-23T01:00:04;1.38;;;0.80;;
32533;SDS011;18973;48.580;8.912;2022-07-23T01:02:31;1.02;;;0.60;;
32533;SDS011;18973;48.580;8.912;2022-07-23T01:04:57;1.90;;;1.30;;
32533;SDS011;18973;48.580;8.912;2022-07-23T01:07:23;0.80;;;0.70;;
32533;SDS011;18973;48.580;8.912;2022-07-23T01:09:50;1.13;;;1.00;;
32533;SDS011;18973;48.580;8.912;2022-07-23T01:12:16;1.77;;;1.10;;
32533;SDS011;18973;48.580;8.912;2022-07-23T01:14:42;0.93;;;0.70;;
32533;SDS011;18973;48.580;8.912;2022-07-23T01:17:08;1.38;;;0.95;;
32533;SDS011;18973;48.580;8.912;2022-07-23T01:19:34;1.25;;;0.95;;
32533;SDS011;18973;48.580;8.912;2022-07-23T01:22:01;1.15;;;0.88;;
32533;SDS011;18973;48.580;8.912;2022-07-23T01:24:28;1.67;;;0.95;;
32533;SDS011;18973;48.580;8.912;2022-07-23T01:26:55;1.15;;;1.05;;
32533;SDS011;18973;48.580;8.912;2022-07-23T01:29:20;1.95;;;1.30;;
32533;SDS011;18973;48.580;8.912;2022-07-23T01:31:46;0.93;;;0.93;;
32533;SDS011;18973;48.580;8.912;2022-07-23T01:34:13;1.60;;;0.70;;
32533;SDS011;18973;48.580;8.912;2022-07-23T01:36:39;1.88;;;1.13;;
32533;SDS011;18973;48.580;8.912;2022-07-23T01:39:06;1.58;;;1.02;;
32533;SDS011;18973;48.580;8.912;2022-07-23T01:41:32;1.60;;;1.00;;
32533;SDS011;18973;48.580;8.912;2022-07-23T01:43:58;1.05;;;0.93;;
32533;SDS011;18973;48.580;8.912;2022-07-23T01:46:24;1.23;;;0.68;;
32533;SDS011;18973;48.580;8.912;2022-07-23T01:48:50;0.80;;;0.60;;
32533;SDS011;18973;48.580;8.912;2022-07-23T01:51:16;1.52;;;1.20;;
32533;SDS011;18973;48.580;8.912;2022-07-23T01:53:42;1.02;;;0.82;;
32533;SDS011;18973;48.580;8.912;2022-07-23T01:56:07;1.17;;;0.80;;
32533;SDS011;18973;48.580;8.912;2022-07-23T01:58:33;2.47;;;1.02;;
32533;SDS011;18973;48.580;8.912;2022-07-23T02:00:59;1.33;;;0.68;;
32533;SDS011;18973;48.580;8.912;2022-07-23T02:03:25;1.73;;;1.05;;
32533;SDS011;18973;48.580;8.912;2022-07-23T02:05:51;2.17;;;1.17;;
32533;SDS011;18973;48.580;8.912;2022-07-23T02:08:17;1.13;;;0.82;;
32533;SDS011;18973;48.580;8.912;2022-07-23T02:10:43;1.20;;;0.88;;
32533;SDS011;18973;48.580;8.912;2022-07-23T02:13:09;1.10;;;1.00;;
32533;SDS011;18973;48.580;8.912;2022-07-23T02:15:35;1.45;;;0.90;;
32533;SDS011;18973;48.580;8.912;2022-07-23T02:18:01;2.10;;;1.15;;
32533;SDS011;18973;48.580;8.912;2022-07-23T02:20:27;1.63;;;0.75;;
32533;SDS011;18973;48.580;8.912;2022-07-23T02:22:52;1.20;;;0.77;;
32533;SDS011;18973;48.580;8.912;2022-07-23T02:25:18;2.55;;;1.20;;
32533;SDS011;18973;48.580;8.912;2022-07-23T02:27:44;1.73;;;0.90;;
32533;SDS011;18973;48.580;8.912;2022-07-23T02:30:09;3.10;;;1.17;;
32533;SDS011;18973;48.580;8.912;2022-07-23T02:32:36;1.63;;;0.95;;
32533;SDS011;18973;48.580;8.912;2022-07-23T02:35:02;1.45;;;1.00;;
32533;SDS011;18973;48.580;8.912;2022-07-23T02:37:29;0.85;;;0.77;;
32533;SDS011;18973;48.580;8.912;2022-07-23T02:39:55;1.50;;;1.35;;
32533;SDS011;18973;48.580;8.912;2022-07-23T02:42:20;1.15;;;1.05;;
32533;SDS011;18973;48.580;8.912;2022-07-23T02:44:46;1.85;;;1.13;;
32533;SDS011;18973;48.580;8.912;2022-07-23T02:47:12;1.10;;;0.90;;
32533;SDS011;18973;48.580;8.912;2022-07-23T02:49:38;1.80;;;1.10;;
32533;SDS011;18973;48.580;8.912;2022-07-23T02:52:03;1.55;;;1.10;;
32533;SDS011;18973;48.580;8.912;2022-07-23T02:54:29;2.25;;;1.05;;
32533;SDS011;18973;48.580;8.912;2022-07-23T02:56:55;1.25;;;0.95;;
32533;SDS011;18973;48.580;8.912;2022-07-23T02:59:21;2.85;;;1.17;;
32533;SDS011;18973;48.580;8.912;2022-07-23T03:01:46;1.70;;;1.30;;
32533;SDS011;18973;48.580;8.912;2022-07-23T03:04:12;1.27;;;1.17;;
32533;SDS011;18973;48.580;8.912;2022-07-23T03:06:38;1.65;;;1.15;;
32533;SDS011;18973;48.580;8.912;2022-07-23T03:09:04;2.78;;;0.85;;
32533;SDS011;18973;48.580;8.912;2022-07-23T03:11:30;1.70;;;1.20;;
32533;SDS011;18973;48.580;8.912;2022-07-23T03:13:56;1.40;;;1.05;;
32533;SDS011;18973;48.580;8.912;2022-07-23T03:16:22;1.63;;;1.25;;
32533;SDS011;18973;48.580;8.912;2022-07-23T03:18:47;1.50;;;1.08;;
32533;SDS011;18973;48.580;8.912;2022-07-23T03:21:13;0.93;;;0.80;;
32533;SDS011;18973;48.580;8.912;2022-07-23T03:23:39;1.63;;;1.10;;
32533;SDS011;18973;48.580;8.912;2022-07-23T03:26:05;1.25;;;0.95;;
32533;SDS011;18973;48.580;8.912;2022-07-23T03:28:30;3.03;;;1.35;;
32533;SDS011;18973;48.580;8.912;2022-07-23T03:30:56;1.63;;;1.17;;
32533;SDS011;18973;48.580;8.912;2022-07-23T03:33:22;1.98;;;1.15;;
32533;SDS011;18973;48.580;8.912;2022-07-23T03:35:48;1.30;;;1.20;;
32533;SDS011;18973;48.580;8.912;2022-07-23T03:38:14;4.78;;;1.58;;
32533;SDS011;18973;48.580;8.912;2022-07-23T03:40:40;1.63;;;1.17;;
32533;SDS011;18973;48.580;8.912;2022-07-23T03:43:06;1.35;;;0.82;;
32533;SDS011;18973;48.580;8.912;2022-07-23T03:45:32;0.93;;;0.82;;
32533;SDS011;18973;48.580;8.912;2022-07-23T03:47:58;2.30;;;1.05;;
32533;SDS011;18973;48.580;8.912;2022-07-23T03:50:24;1.02;;;0.73;;
32533;SDS011;18973;48.580;8.912;2022-07-23T03:52:50;1.50;;;1.10;;
32533;SDS011;18973;48.580;8.912;2022-07-23T03:55:15;1.17;;;1.08;;
32533;SDS011;18973;48.580;8.912;2022-07-23T03:57:41;3.17;;;1.40;;
32533;SDS011;18973;48.580;8.912;2022-07-23T04:00:08;1.38;;;1.25;;
32533;SDS011;18973;48.580;8.912;2022-07-23T04:02:35;1.23;;;1.10;;
32533;SDS011;18973;48.580;8.912;2022-07-23T04:05:01;1.65;;;1.50;;
32533;SDS011;18973;48.580;8.912;2022-07-23T04:07:27;1.60;;;1.23;;
32533;SDS011;18973;48.580;8.912;2022-07-23T04:09:53;2.38;;;1.33;;
32533;SDS011;18973;48.580;8.912;2022-07-23T04:12:19;1.38;;;1.20;;
32533;SDS011;18973;48.580;8.912;2022-07-23T04:14:45;2.30;;;1.33;;
32533;SDS011;18973;48.580;8.912;2022-07-23T04:17:11;2.03;;;1.40;;
32533;SDS011;18973;48.580;8.912;2022-07-23T04:19:37;2.65;;;1.15;;
32533;SDS011;18973;48.580;8.912;2022-07-23T04:22:06;1.60;;;1.00;;
32533;SDS011;18973;48.580;8.912;2022-07-23T04:24:33;2.00;;;1.30;;
32533;SDS011;18973;48.580;8.912;2022-07-23T04:26:59;1.90;;;1.25;;
32533;SDS011;18973;48.580;8.912;2022-07-23T04:29:24;2.00;;;1.42;;
32533;SDS011;18973;48.580;8.912;2022-07-23T04:31:50;2.47;;;1.63;;
32533;SDS011;18973;48.580;8.912;2022-07-23T04:34:16;2.05;;;1.20;;
32533;SDS011;18973;48.580;8.912;2022-07-23T04:36:42;2.22;;;1.25;;
32533;SDS011;18973;48.580;8.912;2022-07-23T04:39:08;2.33;;;1.45;;
32533;SDS011;18973;48.580;8.912;2022-07-23T04:41:33;1.27;;;1.15;;
32533;SDS011;18973;48.580;8.912;2022-07-23T04:44:00;2.83;;;1.38;;
32533;SDS011;18973;48.580;8.912;2022-07-23T04:46:26;3.25;;;1.33;;
32533;SDS011;18973;48.580;8.912;2022-07-23T04:48:52;1.52;;;1.27;;
32533;SDS011;18973;48.580;8.912;2022-07-23T04:51:18;3.17;;;1.73;;
32533;SDS011;18973;48.580;8.912;2022-07-23T04:53:44;2.78;;;1.77;;
32533;SDS011;18973;48.580;8.912;2022-07-23T04:56:10;1.90;;;1.35;;
32533;SDS011;18973;48.580;8.912;2022-07-23T04:58:36;2.58;;;1.20;;
32533;SDS011;18973;48.580;8.912;2022-07-23T05:01:01;1.30;;;0.80;;
32533;SDS011;18973;48.580;8.912;2022-07-23T05:03:27;1.30;;;1.02;;
32533;SDS011;18973;48.580;8.912;2022-07-23T05:05:53;2.72;;;1.45;;
32533;SDS011;18973;48.580;8.912;2022-07-23T05:08:19;1.15;;;0.90;;
32533;SDS011;18973;48.580;8.912;2022-07-23T05:10:45;1.52;;;1.20;;
32533;SDS011;18973;48.580;8.912;2022-07-23T05:13:11;1.55;;;1.33;;
32533;SDS011;18973;48.580;8.912;2022-07-23T05:15:37;1.13;;;0.90;;
32533;SDS011;18973;48.580;8.912;2022-07-23T05:18:02;1.17;;;1.02;;
32533;SDS011;18973;48.580;8.912;2022-07-23T05:20:28;1.70;;;1.27;;
32533;SDS011;18973;48.580;8.912;2022-07-23T05:22:54;2.95;;;1.40;;
32533;SDS011;18973;48.580;8.912;2022-07-23T05:25:20;1.67;;;1.20;;
32533;SDS011;18973;48.580;8.912;2022-07-23T05:27:45;3.42;;;1.63;;
32533;SDS011;18973;48.580;8.912;2022-07-23T05:30:11;1.40;;;1.00;;
32533;SDS011;18973;48.580;8.912;2022-07-23T05:32:37;1.67;;;1.25;;
32533;SDS011;18973;48.580;8.912;2022-07-23T05:35:04;1.50;;;1.08;;
32533;SDS011;18973;48.580;8.912;2022-07-23T05:37:30;2.08;;;1.33;;
32533;SDS011;18973;48.580;8.912;2022-07-23T05:39:59;2.08;;;1.75;;
32533;SDS011;18973;48.580;8.912;2022-07-23T05:42:27;1.83;;;1.23;;
32533;SDS011;18973;48.580;8.912;2022-07-23T05:44:52;2.00;;;1.33;;
32533;SDS011;18973;48.580;8.912;2022-07-23T05:47:18;1.58;;;1.48;;
32533;SDS011;18973;48.580;8.912;2022-07-23T05:49:44;1.40;;;1.30;;
32533;SDS011;18973;48.580;8.912;2022-07-23T05:52:09;2.53;;;1.75;;
32533;SDS011;18973;48.580;8.912;2022-07-23T05:54:35;2.42;;;1.40;;
32533;SDS011;18973;48.580;8.912;2022-07-23T05:57:01;4.07;;;1.42;;
32533;SDS011;18973;48.580;8.912;2022-07-23T05:59:27;1.98;;;1.08;;
32533;SDS011;18973;48.580;8.912;2022-07-23T06:01:53;2.13;;;1.63;;
32533;SDS011;18973;48.580;8.912;2022-07-23T06:04:19;1.67;;;1.40;;
32533;SDS011;18973;48.580;8.912;2022-07-23T06:06:44;1.55;;;1.42;;
32533;SDS011;18973;48.580;8.912;2022-07-23T06:09:10;1.63;;;1.48;;
32533;SDS011;18973;48.580;8.912;2022-07-23T06:11:38;1.50;;;1.27;;
32533;SDS011;18973;48.580;8.912;2022-07-23T06:14:04;1.73;;;1.60;;
32533;SDS011;18973;48.580;8.912;2022-07-23T06:16:30;2.35;;;1.95;;
32533;SDS011;18973;48.580;8.912;2022-07-23T06:18:56;1.90;;;1.67;;
32533;SDS011;18973;48.580;8.912;2022-07-23T06:21:22;2.53;;;1.83;;
32533;SDS011;18973;48.580;8.912;2022-07-23T06:23:48;2.33;;;1.40;;
32533;SDS011;18973;48.580;8.912;2022-07-23T06:26:14;1.95;;;1.58;;
32533;SDS011;18973;48.580;8.912;2022-07-23T06:28:40;4.78;;;2.13;;
32533;SDS011;18973;48.580;8.912;2022-07-23T06:31:05;1.92;;;1.67;;
32533;SDS011;18973;48.580;8.912;2022-07-23T06:33:31;3.05;;;1.75;;
32533;SDS011;18973;48.580;8.912;2022-07-23T06:35:57;3.30;;;1.95;;
32533;SDS011;18973;48.580;8.912;2022-07-23T06:38:22;3.88;;;2.33;;
32533;SDS011;18973;48.580;8.912;2022-07-23T06:40:48;2.30;;;1.45;;
32533;SDS011;18973;48.580;8.912;2022-07-23T06:43:14;2.55;;;1.67;;
32533;SDS011;18973;48.580;8.912;2022-07-23T06:45:39;2.80;;;1.50;;
32533;SDS011;18973;48.580;8.912;2022-07-23T06:48:05;1.38;;;1.15;;
32533;SDS011;18973;48.580;8.912;2022-07-23T06:50:31;2.83;;;1.90;;
32533;SDS011;18973;48.580;8.912;2022-07-23T06:52:57;1.92;;;1.33;;
32533;SDS011;18973;48.580;8.912;2022-07-23T06:55:22;2.38;;;1.63;;
32533;SDS011;18973;48.580;8.912;2022-07-23T06:57:48;2.33;;;1.65;;
32533;SDS011;18973;48.580;8.912;2022-07-23T07:00:14;3.08;;;1.75;;
32533;SDS011;18973;48.580;8.912;2022-07-23T07:02:40;2.72;;;2.25;;
32533;SDS011;18973;48.580;8.912;2022-07-23T07:05:05;3.00;;;2.08;;
32533;SDS011;18973;48.580;8.912;2022-07-23T07:07:31;2.05;;;1.63;;
32533;SDS011;18973;48.580;8.912;2022-07-23T07:09:57;2.13;;;1.90;;
32533;SDS011;18973;48.580;8.912;2022-07-23T07:12:23;2.88;;;2.33;;
32533;SDS011;18973;48.580;8.912;2022-07-23T07:14:49;3.72;;;2.63;;
32533;SDS011;18973;48.580;8.912;2022-07-23T07:17:14;2.63;;;2.00;;
32533;SDS011;18973;48.580;8.912;2022-07-23T07:19:40;3.00;;;2.20;;
32533;SDS011;18973;48.580;8.912;2022-07-23T07:22:06;2.20;;;1.75;;
32533;SDS011;18973;48.580;8.912;2022-07-23T07:24:32;2.30;;;1.63;;
32533;SDS011;18973;48.580;8.912;2022-07-23T07:26:57;2.20;;;1.85;;
32533;SDS011;18973;48.580;8.912;2022-07-23T07:29:23;3.53;;;2.10;;
32533;SDS011;18973;48.580;8.912;2022-07-23T07:31:49;2.40;;;1.67;;
32533;SDS011;18973;48.580;8.912;2022-07-23T07:34:15;3.00;;;2.03;;
32533;SDS011;18973;48.580;8.912;2022-07-23T07:36:40;2.53;;;1.70;;
32533;SDS011;18973;48.580;8.912;2022-07-23T07:39:08;3.40;;;2.38;;
32533;SDS011;18973;48.580;8.912;2022-07-23T07:41:35;3.45;;;2.00;;
32533;SDS011;18973;48.580;8.912;2022-07-23T07:44:01;2.75;;;1.92;;
32533;SDS011;18973;48.580;8.912;2022-07-23T07:46:27;3.03;;;1.67;;
32533;SDS011;18973;48.580;8.912;2022-07-23T07:48:53;2.80;;;1.65;;
32533;SDS011;18973;48.580;8.912;2022-07-23T07:51:18;2.55;;;2.17;;
32533;SDS011;18973;48.580;8.912;2022-07-23T07:53:44;3.15;;;1.98;;
32533;SDS011;18973;48.580;8.912;2022-07-23T07:56:10;2.05;;;1.85;;
32533;SDS011;18973;48.580;8.912;2022-07-23T07:58:36;3.55;;;2.03;;
32533;SDS011;18973;48.580;8.912;2022-07-23T08:01:02;2.35;;;1.65;;
32533;SDS011;18973;48.580;8.912;2022-07-23T08:03:28;2.60;;;1.80;;
32533;SDS011;18973;48.580;8.912;2022-07-23T08:05:54;2.35;;;1.65;;
32533;SDS011;18973;48.580;8.912;2022-07-23T08:08:20;1.52;;;1.40;;
32533;SDS011;18973;48.580;8.912;2022-07-23T08:10:46;2.28;;;1.40;;
32533;SDS011;18973;48.580;8.912;2022-07-23T08:13:15;1.83;;;1.27;;
32533;SDS011;18973;48.580;8.912;2022-07-23T08:15:41;1.85;;;1.38;;
32533;SDS011;18973;48.580;8.912;2022-07-23T08:18:07;1.75;;;1.33;;
32533;SDS011;18973;48.580;8.912;2022-07-23T08:20:33;1.77;;;1.15;;
32533;SDS011;18973;48.580;8.912;2022-07-23T08:23:01;2.38;;;1.50;;
32533;SDS011;18973;48.580;8.912;2022-07-23T08:25:30;2.17;;;1.42;;
32533;SDS011;18973;48.580;8.912;2022-07-23T08:27:58;2.20;;;1.73;;
32533;SDS011;18973;48.580;8.912;2022-07-23T08:30:25;2.67;;;1.88;;
32533;SDS011;18973;48.580;8.912;2022-07-23T08:32:53;2.45;;;1.58;;
32533;SDS011;18973;48.580;8.912;2022-07-23T08:35:29;2.72;;;1.90;;
32533;SDS011;18973;48.580;8.912;2022-07-23T08:38:03;2.00;;;1.10;;
32533;SDS011;18973;48.580;8.912;2022-07-23T08:40:30;1.70;;;1.40;;
32533;SDS011;18973;48.580;8.912;2022-07-23T08:42:59;1.80;;;1.55;;
32533;SDS011;18973;48.580;8.912;2022-07-23T08:45:26;2.10;;;1.40;;
32533;SDS011;18973;48.580;8.912;2022-07-23T08:47:53;1.55;;;1.45;;
32533;SDS011;18973;48.580;8.912;2022-07-23T08:50:21;1.92;;;1.05;;
32533;SDS011;18973;48.580;8.912;2022-07-23T08:52:51;1.67;;;1.15;;
32533;SDS011;18973;48.580;8.912;2022-07-23T08:55:18;2.13;;;1.30;;
32533;SDS011;18973;48.580;8.912;2022-07-23T08:57:49;1.80;;;1.42;;
32533;SDS011;18973;48.580;8.912;2022-07-23T09:00:17;2.13;;;1.75;;
32533;SDS011;18973;48.580;8.912;2022-07-23T09:02:44;1.92;;;1.58;;
32533;SDS011;18973;48.580;8.912;2022-07-23T09:05:11;5.75;;;1.42;;
32533;SDS011;18973;48.580;8.912;2022-07-23T09:07:57;2.05;;;1.35;;
32533;SDS011;18973;48.580;8.912;2022-07-23T09:15:50;2.45;;;1.70;;
32533;SDS011;18973;48.580;8.912;2022-07-23T09:18:17;2.55;;;1.42;;
32533;SDS011;18973;48.580;8.912;2022-07-23T09:20:45;2.83;;;1.85;;
32533;SDS011;18973;48.580;8.912;2022-07-23T09:23:11;1.60;;;1.42;;
32533;SDS011;18973;48.580;8.912;2022-07-23T09:25:37;2.15;;;1.60;;
32533;SDS011;18973;48.580;8.912;2022-07-23T09:28:03;2.47;;;1.58;;
32533;SDS011;18973;48.580;8.912;2022-07-23T09:30:30;2.95;;;1.85;;
32533;SDS011;18973;48.580;8.912;2022-07-23T09:33:30;1.45;;;1.05;;
32533;SDS011;18973;48.580;8.912;2022-07-23T09:35:52;1.75;;;1.60;;
32533;SDS011;18973;48.580;8.912;2022-07-23T09:38:20;2.20;;;1.50;;
32533;SDS011;18973;48.580;8.912;2022-07-23T09:40:47;1.52;;;1.30;;
32533;SDS011;18973;48.580;8.912;2022-07-23T09:43:34;1.80;;;1.20;;
32533;SDS011;18973;48.580;8.912;2022-07-23T09:48:47;1.88;;;1.70;;
32533;SDS011;18973;48.580;8.912;2022-07-23T09:51:13;2.47;;;1.88;;
32533;SDS011;18973;48.580;8.912;2022-07-23T09:53:45;2.15;;;1.77;;
32533;SDS011;18973;48.580;8.912;2022-07-23T09:56:11;3.05;;;2.25;;
32533;SDS011;18973;48.580;8.912;2022-07-23T09:58:40;2.75;;;1.77;;
32533;SDS011;18973;48.580;8.912;2022-07-23T10:49:24;2.90;;;1.80;;
32533;SDS011;18973;48.580;8.912;2022-07-23T10:54:36;2.75;;;1.90;;
32533;SDS011;18973;48.580;8.912;2022-07-23T10:57:06;1.60;;;1.50;;
32533;SDS011;18973;48.580;8.912;2022-07-23T11:02:47;1.83;;;1.20;;
32533;SDS011;18973;48.580;8.912;2022-07-23T11:05:19;1.75;;;1.58;;
32533;SDS011;18973;48.580;8.912;2022-07-23T11:34:41;1.33;;;1.02;;
32533;SDS011;18973;48.580;8.912;2022-07-23T11:37:09;1.30;;;1.10;;
32533;SDS011;18973;48.580;8.912;2022-07-23T11:39:37;2.65;;;1.50;;
32533;SDS011;18973;48.580;8.912;2022-07-23T11:42:04;1.30;;;1.20;;
32533;SDS011;18973;48.580;8.912;2022-07-23T11:44:32;1.83;;;1.60;;
32533;SDS011;18973;48.580;8.912;2022-07-23T11:47:00;2.70;;;1.80;;
32533;SDS011;18973;48.580;8.912;2022-07-23T11:49:28;1.88;;;1.33;;
32533;SDS011;18973;48.580;8.912;2022-07-23T11:52:04;1.40;;;1.08;;
32533;SDS011;18973;48.580;8.912;2022-07-23T11:54:32;1.33;;;1.23;;
32533;SDS011;18973;48.580;8.912;2022-07-23T11:56:59;2.88;;;1.50;;
32533;SDS011;18973;48.580;8.912;2022-07-23T11:59:26;1.40;;;1.30;;
32533;SDS011;18973;48.580;8.912;2022-07-23T12:01:59;1.38;;;1.02;;
32533;SDS011;18973;48.580;8.912;2022-07-23T12:04:38;1.90;;;1.50;;
32533;SDS011;18973;48.580;8.912;2022-07-23T12:07:04;1.83;;;1.38;;
32533;SDS011;18973;48.580;8.912;2022-07-23T12:09:47;2.28;;;1.40;;
32533;SDS011;18973;48.580;8.912;2022-07-23T12:12:13;2.30;;;1.30;;
32533;SDS011;18973;48.580;8.912;2022-07-23T13:57:34;5.47;;;1.98;;
32533;SDS011;18973;48.580;8.912;2022-07-23T14:00:00;2.22;;;1.02;;
32533;SDS011;18973;48.580;8.912;2022-07-23T14:02:26;1.95;;;1.35;;
32533;SDS011;18973;48.580;8.912;2022-07-23T14:04:51;2.47;;;1.63;;
32533;SDS011;18973;48.580;8.912;2022-07-23T14:07:18;2.55;;;1.63;;
32533;SDS011;18973;48.580;8.912;2022-07-23T14:09:44;2.03;;;1.55;;
32533;SDS011;18973;48.580;8.912;2022-07-23T14:12:10;2.47;;;1.60;;
32533;SDS011;18973;48.580;8.912;2022-07-23T14:14:36;2.58;;;1.30;;
32533;SDS011;18973;48.580;8.912;2022-07-23T14:17:01;1.75;;;1.27;;
32533;SDS011;18973;48.580;8.912;2022-07-23T14:19:28;2.00;;;1.60;;
32533;SDS011;18973;48.580;8.912;2022-07-23T14:21:54;1.65;;;1.55;;
32533;SDS011;18973;48.580;8.912;2022-07-23T14:24:20;1.65;;;1.35;;
32533;SDS011;18973;48.580;8.912;2022-07-23T14:26:45;2.70;;;1.90;;
32533;SDS011;18973;48.580;8.912;2022-07-23T14:29:11;4.45;;;2.33;;
32533;SDS011;18973;48.580;8.912;2022-07-23T14:31:37;1.80;;;1.65;;
32533;SDS011;18973;48.580;8.912;2022-07-23T14:34:03;4.18;;;2.05;;
32533;SDS011;18973;48.580;8.912;2022-07-23T14:36:28;2.65;;;2.10;;
32533;SDS011;18973;48.580;8.912;2022-07-23T14:38:54;3.55;;;1.80;;
32533;SDS011;18973;48.580;8.912;2022-07-23T14:41:20;2.28;;;1.70;;
32533;SDS011;18973;48.580;8.912;2022-07-23T14:43:46;2.65;;;1.60;;
32533;SDS011;18973;48.580;8.912;2022-07-23T14:46:12;2.35;;;1.80;;
32533;SDS011;18973;48.580;8.912;2022-07-23T14:48:38;1.65;;;1.48;;
32533;SDS011;18973;48.580;8.912;2022-07-23T14:51:04;1.80;;;1.60;;
32533;SDS011;18973;48.580;8.912;2022-07-23T14:53:30;2.53;;;1.58;;
32533;SDS011;18973;48.580;8.912;2022-07-23T14:55:56;3.67;;;1.50;;
32533;SDS011;18973;48.580;8.912;2022-07-23T14:58:24;2.25;;;1.63;;
32533;SDS011;18973;48.580;8.912;2022-07-23T15:00:52;2.72;;;1.50;;
32533;SDS011;18973;48.580;8.912;2022-07-23T15:03:18;3.78;;;1.92;;
32533;SDS011;18973;48.580;8.912;2022-07-23T15:05:43;2.45;;;2.03;;
32533;SDS011;18973;48.580;8.912;2022-07-23T15:08:09;2.58;;;1.80;;
32533;SDS011;18973;48.580;8.912;2022-07-23T15:10:35;2.25;;;1.63;;
32533;SDS011;18973;48.580;8.912;2022-07-23T15:13:00;1.73;;;1.45;;
32533;SDS011;18973;48.580;8.912;2022-07-23T15:15:26;2.40;;;1.48;;
32533;SDS011;18973;48.580;8.912;2022-07-23T15:17:52;3.35;;;1.98;;
32533;SDS011;18973;48.580;8.912;2022-07-23T15:20:18;2.08;;;1.60;;
32533;SDS011;18973;48.580;8.912;2022-07-23T15:22:48;2.13;;;1.55;;
32533;SDS011;18973;48.580;8.912;2022-07-23T15:25:14;1.50;;;1.40;;
32533;SDS011;18973;48.580;8.912;2022-07-23T15:27:39;1.83;;;1.67;;
32533;SDS011;18973;48.580;8.912;2022-07-23T15:30:06;3.15;;;1.65;;
32533;SDS011;18973;48.580;8.912;2022-07-23T15:32:32;2.78;;;1.48;;
32533;SDS011;18973;48.580;8.912;2022-07-23T15:34:58;2.38;;;1.70;;
32533;SDS011;18973;48.580;8.912;2022-07-23T15:37:25;2.38;;;1.23;;
32533;SDS011;18973;48.580;8.912;2022-07-23T15:39:51;2.30;;;1.83;;
32533;SDS011;18973;48.580;8.912;2022-07-23T15:42:17;2.15;;;1.95;;
32533;SDS011;18973;48.580;8.912;2022-07-23T15:44:43;2.28;;;1.77;;
32533;SDS011;18973;48.580;8.912;2022-07-23T15:47:13;1.17;;;1.05;;
32533;SDS011;18973;48.580;8.912;2022-07-23T15:49:41;2.90;;;1.80;;
32533;SDS011;18973;48.580;8.912;2022-07-23T15:52:07;1.67;;;1.52;;
32533;SDS011;18973;48.580;8.912;2022-07-23T15:54:35;3.05;;;1.98;;
32533;SDS011;18973;48.580;8.912;2022-07-23T15:57:02;2.13;;;1.60;;
32533;SDS011;18973;48.580;8.912;2022-07-23T15:59:28;1.77;;;1.30;;
32533;SDS011;18973;48.580;8.912;2022-07-23T16:01:54;1.73;;;1.63;;
32533;SDS011;18973;48.580;8.912;2022-07-23T16:04:20;2.55;;;2.10;;
32533;SDS011;18973;48.580;8.912;2022-07-23T16:06:46;5.22;;;2.10;;
32533;SDS011;18973;48.580;8.912;2022-07-23T16:09:12;1.85;;;1.67;;
32533;SDS011;18973;48.580;8.912;2022-07-23T16:11:38;6.25;;;2.88;;
32533;SDS011;18973;48.580;8.912;2022-07-23T16:14:04;1.45;;;1.33;;
32533;SDS011;18973;48.580;8.912;2022-07-23T16:16:29;3.08;;;2.15;;
32533;SDS011;18973;48.580;8.912;2022-07-23T16:18:55;2.20;;;2.00;;
32533;SDS011;18973;48.580;8.912;2022-07-23T16:21:22;3.80;;;1.65;;
32533;SDS011;18973;48.580;8.912;2022-07-23T16:23:48;1.70;;;1.50;;
32533;SDS011;18973;48.580;8.912;2022-07-23T16:26:14;1.63;;;1.50;;
32533;SDS011;18973;48.580;8.912;2022-07-23T16:28:42;1.40;;;1.30;;
32533;SDS011;18973;48.580;8.912;2022-07-23T16:31:09;1.38;;;1.23;;
32533;SDS011;18973;48.580;8.912;2022-07-23T16:33:35;3.05;;;1.65;;
32533;SDS011;18973;48.580;8.912;2022-07-23T16:36:04;2.67;;;1.95;;
32533;SDS011;18973;48.580;8.912;2022-07-23T16:38:32;2.60;;;1.73;;
32533;SDS011;18973;48.580;8.912;2022-07-23T16:40:59;2.33;;;1.70;;
32533;SDS011;18973;48.580;8.912;2022-07-23T16:43:25;2.08;;;1.45;;
32533;SDS011;18973;48.580;8.912;2022-07-23T16:45:52;1.67;;;1.58;;
32533;SDS011;18973;48.580;8.912;2022-07-23T16:48:18;2.05;;;1.80;;
32533;SDS011;18973;48.580;8.912;2022-07-23T16:50:45;1.85;;;1.50;;
32533;SDS011;18973;48.580;8.912;2022-07-23T16:53:11;1.73;;;1.48;;
32533;SDS011;18973;48.580;8.912;2022-07-23T16:55:37;4.93;;;2.30;;
32533;SDS011;18973;48.580;8.912;2022-07-23T16:58:04;2.42;;;2.00;;
32533;SDS011;18973;48.580;8.912;2022-07-23T17:00:30;2.05;;;1.70;;
32533;SDS011;18973;48.580;8.912;2022-07-23T17:02:56;2.35;;;1.80;;
32533;SDS011;18973;48.580;8.912;2022-07-23T17:05:22;1.75;;;1.40;;
32533;SDS011;18973;48.580;8.912;2022-07-23T17:07:48;1.50;;;0.98;;
32533;SDS011;18973;48.580;8.912;2022-07-23T17:10:15;1.60;;;1.20;;
32533;SDS011;18973;48.580;8.912;2022-07-23T17:12:42;1.92;;;1.27;;
32533;SDS011;18973;48.580;8.912;2022-07-23T17:15:07;1.92;;;1.60;;
32533;SDS011;18973;48.580;8.912;2022-07-23T17:17:34;1.88;;;1.20;;
32533;SDS011;18973;48.580;8.912;2022-07-23T17:20:00;2.00;;;1.60;;
32533;SDS011;18973;48.580;8.912;2022-07-23T17:22:26;1.92;;;1.42;;
32533;SDS011;18973;48.580;8.912;2022-07-23T17:24:52;2.15;;;1.60;;
32533;SDS011;18973;48.580;8.912;2022-07-23T17:27:18;1.85;;;1.60;;
32533;SDS011;18973;48.580;8.912;2022-07-23T17:29:44;2.50;;;1.63;;
32533;SDS011;18973;48.580;8.912;2022-07-23T17:32:09;1.65;;;1.35;;
32533;SDS011;18973;48.580;8.912;2022-07-23T17:34:35;2.53;;;1.70;;
32533;SDS011;18973;48.580;8.912;2022-07-23T17:37:01;3.47;;;2.08;;
32533;SDS011;18973;48.580;8.912;2022-07-23T17:39:26;2.15;;;1.63;;
32533;SDS011;18973;48.580;8.912;2022-07-23T17:41:52;3.95;;;1.30;;
32533;SDS011;18973;48.580;8.912;2022-07-23T17:44:18;2.88;;;2.00;;
32533;SDS011;18973;48.580;8.912;2022-07-23T17:46:45;2.20;;;1.50;;
32533;SDS011;18973;48.580;8.912;2022-07-23T17:49:11;2.40;;;1.58;;
32533;SDS011;18973;48.580;8.912;2022-07-23T17:51:37;2.78;;;1.63;;
32533;SDS011;18973;48.580;8.912;2022-07-23T17:54:03;1.42;;;1.25;;
32533;SDS011;18973;48.580;8.912;2022-07-23T17:56:29;2.38;;;1.60;;